Time,TemperatureF,DewpointF,PressureIn,WindDirection,WindDirectionDegrees,WindSpeedMPH,WindSpeedGustMPH,Humidity,HourlyPrecipIn,Conditions,Clouds,dailyrainin,SoftwareType,DateUTC
2013-01-18 00:02:00,9.0,5.0,-100.00,North,0,0.0,4.0,85,-99.99,,,-99.99,,2013-01-18 09:02:00,
2013-01-18 00:12:00,9.0,5.0,-100.00,North,0,0.0,4.0,85,-99.99,,,-99.99,,2013-01-18 09:12:00,
2013-01-18 00:22:00,8.0,4.0,-100.00,NNE,14,0.0,2.0,85,-99.99,,,-99.99,,2013-01-18 09:22:00,
2013-01-18 00:32:00,8.0,4.0,-100.00,NE,40,1.0,3.0,84,-99.99,,,-99.99,,2013-01-18 09:32:00,
2013-01-18 00:42:00,8.0,4.0,-100.00,NE,40,1.0,3.0,84,-99.99,,,-99.99,,2013-01-18 09:42:00,
2013-01-18 00:52:00,8.0,4.0,-100.00,NE,37,7.0,11.0,84,-99.99,,,-99.99,,2013-01-18 09:52:00,
2013-01-18 01:02:00,8.0,4.0,-100.00,NNE,32,5.0,9.0,85,-99.99,,,-99.99,,2013-01-18 10:02:00,
2013-01-18 01:12:00,8.0,4.0,-100.00,NNE,32,5.0,9.0,85,-99.99,,,-99.99,,2013-01-18 10:12:00,
2013-01-18 01:22:00,8.0,4.0,-100.00,NE,44,2.0,6.0,84,-99.99,,,-99.99,,2013-01-18 10:22:00,
2013-01-18 01:32:00,9.0,5.0,-100.00,NE,38,2.0,5.0,84,-99.99,,,-99.99,,2013-01-18 10:32:00,
2013-01-18 01:42:00,9.0,5.0,-100.00,NE,38,2.0,5.0,84,-99.99,,,-99.99,,2013-01-18 10:42:00,
2013-01-18 01:52:00,9.0,5.0,-100.00,SSW,211,1.0,2.0,85,-99.99,,,-99.99,,2013-01-18 10:52:00,
2013-01-18 02:02:00,9.0,5.0,-100.00,SSW,211,1.0,2.0,85,-99.99,,,-99.99,,2013-01-18 11:02:00,
2013-01-18 02:12:00,9.0,5.0,-100.00,SSW,211,1.0,2.0,85,-99.99,,,-99.99,,2013-01-18 11:12:00,
2013-01-18 02:22:00,8.0,4.0,-100.00,ESE,115,0.0,1.0,83,-99.99,,,-99.99,,2013-01-18 11:22:00,
2013-01-18 02:32:00,8.0,4.0,-100.00,NNW,343,0.0,2.0,84,-99.99,,,-99.99,,2013-01-18 11:32:00,
2013-01-18 02:42:00,8.0,4.0,-100.00,NNW,343,0.0,2.0,84,-99.99,,,-99.99,,2013-01-18 11:42:00,
2013-01-18 02:52:00,7.0,3.0,-100.00,WNW,285,0.0,1.0,84,-99.99,,,-99.99,,2013-01-18 11:52:00,
2013-01-18 03:02:00,7.0,3.0,-100.00,SSW,202,0.0,0.0,85,-99.99,,,-99.99,,2013-01-18 12:02:00,
2013-01-18 03:12:00,7.0,3.0,-100.00,SSW,202,0.0,0.0,85,-99.99,,,-99.99,,2013-01-18 12:12:00,
2013-01-18 03:22:00,7.0,3.0,-100.00,SSE,156,0.0,0.0,85,-99.99,,,-99.99,,2013-01-18 12:22:00,
2013-01-18 03:32:00,8.0,4.0,-100.00,NNE,33,0.0,1.0,84,-99.99,,,-99.99,,2013-01-18 12:32:00,
2013-01-18 03:42:00,8.0,4.0,-100.00,NNE,33,0.0,1.0,84,-99.99,,,-99.99,,2013-01-18 12:42:00,
2013-01-18 03:52:00,7.0,3.0,-100.00,West,264,0.0,1.0,84,-99.99,,,-99.99,,2013-01-18 12:52:00,
2013-01-18 04:02:00,7.0,3.0,-100.00,SW,234,0.0,0.0,84,-99.99,,,-99.99,,2013-01-18 13:02:00,
2013-01-18 04:12:00,7.0,3.0,-100.00,SW,234,0.0,0.0,84,-99.99,,,-99.99,,2013-01-18 13:12:00,
2013-01-18 04:22:00,6.0,2.0,-100.00,North,358,0.0,0.0,83,-99.99,,,-99.99,,2013-01-18 13:22:00,
2013-01-18 04:33:00,6.0,2.0,-100.00,North,358,0.0,0.0,83,-99.99,,,-99.99,,2013-01-18 13:33:00,
2013-01-18 04:42:00,6.0,2.0,-100.00,North,358,0.0,0.0,83,-99.99,,,-99.99,,2013-01-18 13:42:00,
2013-01-18 04:52:00,7.0,3.0,-100.00,SE,136,0.0,2.0,84,-99.99,,,-99.99,,2013-01-18 13:52:00,
2013-01-18 05:03:00,7.0,3.0,-100.00,SSW,212,0.0,2.0,84,-99.99,,,-99.99,,2013-01-18 14:03:00,
2013-01-18 05:12:00,7.0,3.0,-100.00,SSW,212,0.0,2.0,84,-99.99,,,-99.99,,2013-01-18 14:12:00,
2013-01-18 05:22:00,6.0,2.0,-100.00,South,178,0.0,1.0,84,-99.99,,,-99.99,,2013-01-18 14:22:00,
2013-01-18 05:33:00,7.0,3.0,-100.00,SE,145,0.0,0.0,83,-99.99,,,-99.99,,2013-01-18 14:33:00,
2013-01-18 05:42:00,7.0,3.0,-100.00,SE,145,0.0,0.0,83,-99.99,,,-99.99,,2013-01-18 14:42:00,
2013-01-18 05:53:00,7.0,3.0,-100.00,SSE,165,2.0,3.0,84,-99.99,,,-99.99,,2013-01-18 14:53:00,
2013-01-18 06:02:00,8.0,4.0,-100.00,South,178,2.0,4.0,83,-99.99,,,-99.99,,2013-01-18 15:02:00,
2013-01-18 06:12:00,8.0,4.0,-100.00,South,178,2.0,4.0,83,-99.99,,,-99.99,,2013-01-18 15:12:00,
2013-01-18 06:22:00,8.0,4.0,-100.00,SE,135,3.0,5.0,84,-99.99,,,-99.99,,2013-01-18 15:22:00,
2013-01-18 06:33:00,8.0,4.0,-100.00,SE,142,3.0,6.0,84,-99.99,,,-99.99,,2013-01-18 15:33:00,
2013-01-18 06:43:00,8.0,4.0,-100.00,SE,142,3.0,6.0,84,-99.99,,,-99.99,,2013-01-18 15:43:00,
2013-01-18 06:53:00,8.0,4.0,-100.00,South,177,2.0,5.0,82,-99.99,,,-99.99,,2013-01-18 15:53:00,
2013-01-18 07:02:00,8.0,4.0,-100.00,South,186,2.0,4.0,82,-99.99,,,-99.99,,2013-01-18 16:02:00,
2013-01-18 07:12:00,8.0,4.0,-100.00,South,186,2.0,4.0,82,-99.99,,,-99.99,,2013-01-18 16:12:00,
2013-01-18 07:22:00,8.0,4.0,-100.00,SSW,194,1.0,4.0,82,-99.99,,,-99.99,,2013-01-18 16:22:00,
2013-01-18 07:33:00,8.0,4.0,-100.00,South,177,1.0,2.0,82,-99.99,,,-99.99,,2013-01-18 16:33:00,
2013-01-18 07:42:00,8.0,4.0,-100.00,South,177,1.0,2.0,82,-99.99,,,-99.99,,2013-01-18 16:42:00,
2013-01-18 07:52:00,8.0,4.0,-100.00,SE,145,1.0,2.0,82,-99.99,,,-99.99,,2013-01-18 16:52:00,
2013-01-18 08:02:00,8.0,4.0,-100.00,East,92,3.0,6.0,82,-99.99,,,-99.99,,2013-01-18 17:02:00,
2013-01-18 08:12:00,8.0,4.0,-100.00,East,92,3.0,6.0,82,-99.99,,,-99.99,,2013-01-18 17:12:00,
2013-01-18 08:22:00,9.0,4.0,-100.00,East,97,1.0,4.0,81,-99.99,,,-99.99,,2013-01-18 17:22:00,
2013-01-18 08:33:00,8.0,4.0,-100.00,SSW,196,2.0,4.0,82,-99.99,,,-99.99,,2013-01-18 17:33:00,
2013-01-18 08:42:00,8.0,4.0,-100.00,SSW,196,2.0,4.0,82,-99.99,,,-99.99,,2013-01-18 17:42:00,
2013-01-18 08:53:00,8.0,4.0,-100.00,SSW,198,3.0,5.0,83,-99.99,,,-99.99,,2013-01-18 17:53:00,
2013-01-18 09:03:00,8.0,4.0,-100.00,South,183,2.0,6.0,83,-99.99,,,-99.99,,2013-01-18 18:03:00,
2013-01-18 09:12:00,8.0,4.0,-100.00,South,183,2.0,6.0,83,-99.99,,,-99.99,,2013-01-18 18:12:00,
2013-01-18 09:23:00,8.0,4.0,-100.00,SSW,195,1.0,4.0,84,-99.99,,,-99.99,,2013-01-18 18:23:00,
2013-01-18 09:33:00,8.0,4.0,-100.00,WSW,251,0.0,1.0,84,-99.99,,,-99.99,,2013-01-18 18:33:00,
2013-01-18 09:43:00,8.0,4.0,-100.00,WSW,251,0.0,1.0,84,-99.99,,,-99.99,,2013-01-18 18:43:00,
2013-01-18 09:52:00,7.0,3.0,-100.00,ENE,57,0.0,4.0,83,-99.99,,,-99.99,,2013-01-18 18:52:00,
2013-01-18 10:02:00,7.0,3.0,-100.00,WSW,239,0.0,2.0,85,-99.99,,,-99.99,,2013-01-18 19:02:00,
2013-01-18 10:12:00,7.0,3.0,-100.00,WSW,239,0.0,2.0,85,-99.99,,,-99.99,,2013-01-18 19:12:00,
2013-01-18 10:22:00,7.0,3.0,-100.00,WSW,247,0.0,0.0,85,-99.99,,,-99.99,,2013-01-18 19:22:00,
2013-01-18 10:33:00,8.0,4.0,-100.00,ENE,65,4.0,6.0,84,-99.99,,,-99.99,,2013-01-18 19:33:00,
2013-01-18 10:42:00,8.0,4.0,-100.00,ENE,65,4.0,6.0,84,-99.99,,,-99.99,,2013-01-18 19:42:00,
2013-01-18 10:52:00,8.0,4.0,-100.00,NE,54,3.0,5.0,84,-99.99,,,-99.99,,2013-01-18 19:52:00,
2013-01-18 11:02:00,8.0,4.0,-100.00,NE,55,2.0,4.0,83,-99.99,,,-99.99,,2013-01-18 20:02:00,
2013-01-18 11:12:00,8.0,4.0,-100.00,NE,55,2.0,4.0,83,-99.99,,,-99.99,,2013-01-18 20:12:00,
2013-01-18 11:22:00,8.0,4.0,-100.00,NE,48,2.0,7.0,83,-99.99,,,-99.99,,2013-01-18 20:22:00,
2013-01-18 11:33:00,8.0,4.0,-100.00,NE,44,4.0,7.0,84,-99.99,,,-99.99,,2013-01-18 20:33:00,
2013-01-18 11:42:00,8.0,4.0,-100.00,NE,44,4.0,7.0,84,-99.99,,,-99.99,,2013-01-18 20:42:00,
2013-01-18 11:52:00,9.0,5.0,-100.00,ENE,65,0.0,4.0,84,-99.99,,,-99.99,,2013-01-18 20:52:00,
2013-01-18 12:02:00,9.0,5.0,-100.00,NNE,15,0.0,3.0,84,-99.99,,,-99.99,,2013-01-18 21:02:00,
2013-01-18 12:12:00,9.0,5.0,-100.00,NNE,15,0.0,3.0,84,-99.99,,,-99.99,,2013-01-18 21:12:00,
2013-01-18 12:22:00,9.0,5.0,-100.00,NE,45,1.0,4.0,84,-99.99,,,-99.99,,2013-01-18 21:22:00,
2013-01-18 12:33:00,9.0,5.0,-100.00,SE,141,0.0,2.0,83,-99.99,,,-99.99,,2013-01-18 21:33:00,
2013-01-18 12:42:00,9.0,5.0,-100.00,SE,141,0.0,2.0,83,-99.99,,,-99.99,,2013-01-18 21:42:00,
2013-01-18 12:52:00,9.0,5.0,-100.00,ENE,57,1.0,3.0,83,-99.99,,,-99.99,,2013-01-18 21:52:00,
2013-01-18 13:02:00,9.0,5.0,-100.00,NE,45,0.0,4.0,82,-99.99,,,-99.99,,2013-01-18 22:02:00,
2013-01-18 13:12:00,9.0,5.0,-100.00,NE,45,0.0,4.0,82,-99.99,,,-99.99,,2013-01-18 22:12:00,
2013-01-18 13:22:00,10.0,6.0,-100.00,SSW,197,1.0,5.0,83,-99.99,,,-99.99,,2013-01-18 22:22:00,
2013-01-18 13:32:00,10.0,6.0,-100.00,SW,214,1.0,3.0,83,-99.99,,,-99.99,,2013-01-18 22:32:00,
2013-01-18 13:42:00,10.0,6.0,-100.00,SW,214,1.0,3.0,83,-99.99,,,-99.99,,2013-01-18 22:42:00,
2013-01-18 13:52:00,10.0,6.0,-100.00,SSW,213,3.0,5.0,84,-99.99,,,-99.99,,2013-01-18 22:52:00,
2013-01-18 14:02:00,10.0,6.0,-100.00,South,189,1.0,3.0,83,-99.99,,,-99.99,,2013-01-18 23:02:00,
2013-01-18 14:12:00,10.0,6.0,-100.00,South,189,1.0,3.0,83,-99.99,,,-99.99,,2013-01-18 23:12:00,
2013-01-18 14:22:00,11.0,7.0,-100.00,SSW,212,0.0,2.0,82,-99.99,,,-99.99,,2013-01-18 23:22:00,
2013-01-18 14:32:00,11.0,7.0,-100.00,NNE,29,2.0,4.0,83,-99.99,,,-99.99,,2013-01-18 23:32:00,
2013-01-18 14:42:00,11.0,7.0,-100.00,NNE,29,2.0,4.0,83,-99.99,,,-99.99,,2013-01-18 23:42:00,
2013-01-18 14:52:00,12.0,8.0,-100.00,SSW,213,2.0,4.0,83,-99.99,,,-99.99,,2013-01-18 23:52:00,
2013-01-18 15:02:00,12.0,8.0,-100.00,SSW,213,2.0,4.0,83,-99.99,,,-99.99,,2013-01-19 00:02:00,
2013-01-18 15:12:00,12.0,8.0,-100.00,SSW,213,2.0,4.0,83,-99.99,,,-99.99,,2013-01-19 00:12:00,
2013-01-18 15:22:00,10.0,6.0,-100.00,South,177,1.0,4.0,83,-99.99,,,-99.99,,2013-01-19 00:22:00,
2013-01-18 15:32:00,11.0,7.0,-100.00,NNW,341,0.0,2.0,83,-99.99,,,-99.99,,2013-01-19 00:32:00,
2013-01-18 15:42:00,11.0,7.0,-100.00,NNW,341,0.0,2.0,83,-99.99,,,-99.99,,2013-01-19 00:42:00,
2013-01-18 15:52:00,11.0,6.0,-100.00,ENE,70,0.0,4.0,81,-99.99,,,-99.99,,2013-01-19 00:52:00,
2013-01-18 16:02:00,12.0,8.0,-100.00,West,268,0.0,1.0,82,-99.99,,,-99.99,,2013-01-19 01:02:00,
2013-01-18 16:12:00,12.0,8.0,-100.00,West,268,0.0,1.0,82,-99.99,,,-99.99,,2013-01-19 01:12:00,
2013-01-18 16:22:00,11.0,7.0,-100.00,SSW,208,0.0,3.0,82,-99.99,,,-99.99,,2013-01-19 01:22:00,
2013-01-18 16:32:00,10.0,6.0,-100.00,NE,54,3.0,5.0,83,-99.99,,,-99.99,,2013-01-19 01:32:00,
2013-01-18 16:42:00,10.0,6.0,-100.00,NE,54,3.0,5.0,83,-99.99,,,-99.99,,2013-01-19 01:42:00,
2013-01-18 16:52:00,10.0,6.0,-100.00,NNE,26,2.0,5.0,83,-99.99,,,-99.99,,2013-01-19 01:52:00,
2013-01-18 17:02:00,10.0,6.0,-100.00,NNE,31,2.0,9.0,84,-99.99,,,-99.99,,2013-01-19 02:02:00,
2013-01-18 17:12:00,10.0,6.0,-100.00,NNE,31,2.0,9.0,84,-99.99,,,-99.99,,2013-01-19 02:12:00,
2013-01-18 17:22:00,10.0,6.0,-100.00,NE,35,2.0,5.0,84,-99.99,,,-99.99,,2013-01-19 02:22:00,
2013-01-18 17:32:00,10.0,6.0,-100.00,NE,35,4.0,9.0,83,-99.99,,,-99.99,,2013-01-19 02:32:00,
2013-01-18 17:42:00,10.0,6.0,-100.00,NE,35,4.0,9.0,83,-99.99,,,-99.99,,2013-01-19 02:42:00,
2013-01-18 17:52:00,9.0,5.0,-100.00,ENE,64,2.0,5.0,83,-99.99,,,-99.99,,2013-01-19 02:52:00,
2013-01-18 18:02:00,9.0,5.0,-100.00,ENE,62,5.0,10.0,82,-99.99,,,-99.99,,2013-01-19 03:02:00,
2013-01-18 18:12:00,9.0,5.0,-100.00,ENE,62,5.0,10.0,82,-99.99,,,-99.99,,2013-01-19 03:12:00,
2013-01-18 18:22:00,10.0,6.0,-100.00,ENE,67,2.0,5.0,82,-99.99,,,-99.99,,2013-01-19 03:22:00,
2013-01-18 18:32:00,10.0,6.0,-100.00,NNE,33,1.0,5.0,82,-99.99,,,-99.99,,2013-01-19 03:32:00,
2013-01-18 18:42:00,10.0,6.0,-100.00,NNE,33,1.0,5.0,82,-99.99,,,-99.99,,2013-01-19 03:42:00,
2013-01-18 18:52:00,10.0,6.0,-100.00,NE,43,3.0,7.0,82,-99.99,,,-99.99,,2013-01-19 03:52:00,
2013-01-18 19:02:00,12.0,8.0,-100.00,NW,310,1.0,6.0,83,-99.99,,,-99.99,,2013-01-19 04:02:00,
2013-01-18 19:12:00,12.0,8.0,-100.00,NW,310,1.0,6.0,83,-99.99,,,-99.99,,2013-01-19 04:12:00,
2013-01-18 19:22:00,11.0,7.0,-100.00,NNE,32,4.0,6.0,82,-99.99,,,-99.99,,2013-01-19 04:22:00,
2013-01-18 19:32:00,11.0,7.0,-100.00,NE,37,3.0,5.0,82,-99.99,,,-99.99,,2013-01-19 04:32:00,
2013-01-18 19:42:00,11.0,7.0,-100.00,NE,37,3.0,5.0,82,-99.99,,,-99.99,,2013-01-19 04:42:00,
2013-01-18 19:52:00,12.0,7.0,-100.00,ENE,60,0.0,4.0,81,-99.99,,,-99.99,,2013-01-19 04:52:00,
2013-01-18 20:03:00,13.0,9.0,-100.00,NE,45,0.0,4.0,85,-99.99,,,-99.99,,2013-01-19 05:03:00,
2013-01-18 20:12:00,13.0,9.0,-100.00,NE,45,0.0,4.0,85,-99.99,,,-99.99,,2013-01-19 05:12:00,
2013-01-18 20:22:00,14.0,10.0,-100.00,NNW,339,0.0,4.0,82,-99.99,,,-99.99,,2013-01-19 05:22:00,
2013-01-18 20:32:00,14.0,8.0,-100.00,NNE,33,2.0,4.0,78,-99.99,,,-99.99,,2013-01-19 05:32:00,
2013-01-18 20:42:00,14.0,8.0,-100.00,NNE,33,2.0,4.0,78,-99.99,,,-99.99,,2013-01-19 05:42:00,
2013-01-18 20:52:00,13.0,8.0,-100.00,SSE,166,1.0,4.0,80,-99.99,,,-99.99,,2013-01-19 05:52:00,
2013-01-18 21:02:00,15.0,11.0,-100.00,SE,140,2.0,8.0,84,-99.99,,,-99.99,,2013-01-19 06:02:00,
2013-01-18 21:12:00,15.0,11.0,-100.00,SE,140,2.0,8.0,84,-99.99,,,-99.99,,2013-01-19 06:12:00,
2013-01-18 21:22:00,18.0,13.0,-100.00,South,170,3.0,9.0,81,-99.99,,,-99.99,,2013-01-19 06:22:00,
2013-01-18 21:32:00,17.0,13.0,-100.00,North,8,0.0,7.0,83,-99.99,,,-99.99,,2013-01-19 06:32:00,
2013-01-18 21:43:00,17.0,13.0,-100.00,North,8,0.0,7.0,83,-99.99,,,-99.99,,2013-01-19 06:43:00,
2013-01-18 21:52:00,20.0,14.0,-100.00,SW,233,3.0,12.0,78,-99.99,,,-99.99,,2013-01-19 06:52:00,
2013-01-18 22:02:00,20.0,14.0,-100.00,SW,229,3.0,10.0,78,-99.99,,,-99.99,,2013-01-19 07:02:00,
2013-01-18 22:22:00,17.0,12.0,-100.00,South,172,4.0,11.0,79,-99.99,,,-99.99,,2013-01-19 07:22:00,
2013-01-18 22:32:00,16.0,11.0,-100.00,NNW,329,1.0,5.0,79,-99.99,,,-99.99,,2013-01-19 07:32:00,
2013-01-18 22:42:00,16.0,11.0,-100.00,NNW,329,1.0,5.0,79,-99.99,,,-99.99,,2013-01-19 07:42:00,
2013-01-18 22:52:00,16.0,11.0,-100.00,ESE,119,4.0,9.0,81,-99.99,,,-99.99,,2013-01-19 07:52:00,
2013-01-18 23:02:00,22.0,16.0,-100.00,South,179,5.0,20.0,77,-99.99,,,-99.99,,2013-01-19 08:02:00,
2013-01-18 23:22:00,19.0,12.0,-100.00,SE,130,2.0,13.0,74,-99.99,,,-99.99,,2013-01-19 08:22:00,
2013-01-18 23:32:00,18.0,12.0,-100.00,ESE,118,2.0,8.0,78,-99.99,,,-99.99,,2013-01-19 08:32:00,
2013-01-18 23:42:00,18.0,12.0,-100.00,ESE,118,2.0,8.0,78,-99.99,,,-99.99,,2013-01-19 08:42:00,
2013-01-18 23:52:00,18.0,13.0,-100.00,ENE,73,0.0,12.0,79,-99.99,,,-99.99,,2013-01-19 08:52:00,